الصفحة الرئيسية
METAR-TAF:

METAR-TAF

مطار :

مغنيتاغورسك, روسيا

دائرة عرض: 53-23-36N, خط طول: 058-45-24E, ارتفاع: 436 متر

مراقبة الطقس الحالي

تاريخ ووقت الإصدار 35 دقيقة قبل الساعة 15:00UTC
ريح 8 عقدة من الشمال
درجة الحرارة -9°درجة مئوية
الرطوبة 85%
ضغط 1025 hPa
الرؤية: 5000 متر
غيوم متفرقة على ارتفاع 4000 قدم
غشاء

METAR: USCM 141500Z 01004MPS 5000 BR SCT040 M09/M11 Q1025 R36/420155 TEMPO 1000 SN BR RMK QFE729

زمن: 20:35 (15:35 UTC)

توقعات

تاريخ ووقت الإصدار 1ساعة و 35 دقيقة قبل الساعة 14:00UTC
التوقعات صالحة من14 الساعة 15 UTC إلى 14 الساعة 24 UTC
ريح 6 عقدة من الشمال تتزايد حتى 16 عقدة
الرؤية: 3100 متر
غيوم مفككة على ارتفاع 1100 قدم
غشاء
مؤقت
من 14 الساعة 15 UTC إلى 14 الساعة 24 UTC
ريح 6 عقدة من الشرق تتزايد حتى 16 عقدة
الرؤية: 0300 متر
على ارتفاع 200 قدم
ثلوج خفيفة, ضباب مجمِّد

TAF: USCM 141400Z 1415/1424 01003G08MPS 3100 BR BKN011 TEMPO 1415/1424 09003G08MPS 0300 -SN FZFG VV002

أرصاد الطقس والتوقعات من أكثر من 4000 مطار (تقارير الطقس للمطار METAR والتنبؤ بالطقس بالمطارTAF).

المحطات المتاحة هي النقط الصفراء والحمراء على الخريطة.

حرك المؤشر فوق النقطة لمعرفة اسم المحطة.

ثم انقر لمعرفة أرصاد وتوقعات الطقس.

لتغيير الخارطة: اضغط على الأزرار الخضراء مع رمز الصليب الأسود للتكبير. على الزر الأخضر مع شرطة للتصغير، أو على الأسهم الخضراء للخرائط المجاورة.


METAR-TAF: